sensor_id;sensor_type;location;lat;lon;timestamp;pressure;altitude;pressure_sealevel;temperature;humidity
12594;BME280;6362;50.208;9.182;2023-09-19T00:01:07;99258.72;;;16.74;100.00
12594;BME280;6362;50.208;9.182;2023-09-19T00:03:34;99268.44;;;16.72;100.00
12594;BME280;6362;50.208;9.182;2023-09-19T00:06:02;99263.47;;;16.64;100.00
12594;BME280;6362;50.208;9.182;2023-09-19T00:08:28;99268.78;;;16.62;100.00
12594;BME280;6362;50.208;9.182;2023-09-19T00:10:54;99269.53;;;16.66;100.00
12594;BME280;6362;50.208;9.182;2023-09-19T00:13:20;99272.09;;;16.68;100.00
12594;BME280;6362;50.208;9.182;2023-09-19T00:15:47;99275.47;;;16.70;100.00
12594;BME280;6362;50.208;9.182;2023-09-19T00:18:17;99271.34;;;16.64;100.00
12594;BME280;6362;50.208;9.182;2023-09-19T00:20:44;99272.16;;;16.66;100.00
12594;BME280;6362;50.208;9.182;2023-09-19T00:23:13;99277.44;;;16.64;100.00
12594;BME280;6362;50.208;9.182;2023-09-19T00:25:39;99276.75;;;16.61;100.00
12594;BME280;6362;50.208;9.182;2023-09-19T00:28:05;99280.41;;;16.57;100.00
12594;BME280;6362;50.208;9.182;2023-09-19T00:30:33;99278.53;;;16.60;100.00
12594;BME280;6362;50.208;9.182;2023-09-19T00:32:59;99276.47;;;16.67;100.00
12594;BME280;6362;50.208;9.182;2023-09-19T00:35:25;99279.84;;;16.71;100.00
12594;BME280;6362;50.208;9.182;2023-09-19T00:37:51;99280.88;;;16.67;100.00
12594;BME280;6362;50.208;9.182;2023-09-19T00:40:17;99283.09;;;16.77;100.00
12594;BME280;6362;50.208;9.182;2023-09-19T00:42:44;99290.63;;;16.85;99.56
12594;BME280;6362;50.208;9.182;2023-09-19T00:45:12;99294.94;;;16.86;99.68
12594;BME280;6362;50.208;9.182;2023-09-19T00:47:43;99290.50;;;16.88;100.00
12594;BME280;6362;50.208;9.182;2023-09-19T00:50:11;99291.53;;;16.84;99.95
12594;BME280;6362;50.208;9.182;2023-09-19T00:52:40;99292.59;;;16.80;100.00
12594;BME280;6362;50.208;9.182;2023-09-19T00:55:09;99292.75;;;16.77;100.00
12594;BME280;6362;50.208;9.182;2023-09-19T00:57:37;99298.38;;;16.88;100.00
12594;BME280;6362;50.208;9.182;2023-09-19T01:00:05;99292.13;;;16.91;99.04
12594;BME280;6362;50.208;9.182;2023-09-19T01:02:33;99288.72;;;16.88;99.61
12594;BME280;6362;50.208;9.182;2023-09-19T01:04:59;99294.16;;;16.84;99.50
12594;BME280;6362;50.208;9.182;2023-09-19T01:07:30;99302.97;;;16.83;100.00
12594;BME280;6362;50.208;9.182;2023-09-19T01:09:57;99304.53;;;16.87;99.55
12594;BME280;6362;50.208;9.182;2023-09-19T01:13:16;99305.38;;;16.87;99.77
12594;BME280;6362;50.208;9.182;2023-09-19T01:24:03;99319.38;;;16.88;99.01
12594;BME280;6362;50.208;9.182;2023-09-19T01:31:45;99320.97;;;16.72;100.00
12594;BME280;6362;50.208;9.182;2023-09-19T01:34:11;99324.38;;;16.74;100.00
12594;BME280;6362;50.208;9.182;2023-09-19T01:36:38;99333.25;;;16.71;100.00
12594;BME280;6362;50.208;9.182;2023-09-19T01:39:04;99330.63;;;16.71;100.00
12594;BME280;6362;50.208;9.182;2023-09-19T01:52:37;99341.38;;;16.63;100.00
12594;BME280;6362;50.208;9.182;2023-09-19T01:55:09;99353.47;;;16.68;100.00
12594;BME280;6362;50.208;9.182;2023-09-19T01:57:42;99354.31;;;16.68;100.00
12594;BME280;6362;50.208;9.182;2023-09-19T02:00:12;99356.00;;;16.71;100.00
12594;BME280;6362;50.208;9.182;2023-09-19T02:02:42;99357.88;;;16.67;100.00
12594;BME280;6362;50.208;9.182;2023-09-19T02:05:09;99357.03;;;16.67;100.00
12594;BME280;6362;50.208;9.182;2023-09-19T02:07:35;99361.28;;;16.69;100.00
12594;BME280;6362;50.208;9.182;2023-09-19T02:10:04;99359.69;;;16.65;100.00
12594;BME280;6362;50.208;9.182;2023-09-19T02:12:31;99362.53;;;16.60;100.00
12594;BME280;6362;50.208;9.182;2023-09-19T02:14:58;99366.97;;;16.58;100.00
12594;BME280;6362;50.208;9.182;2023-09-19T02:17:24;99366.31;;;16.53;100.00
12594;BME280;6362;50.208;9.182;2023-09-19T02:19:54;99366.50;;;16.49;100.00
12594;BME280;6362;50.208;9.182;2023-09-19T02:22:21;99366.63;;;16.46;100.00
12594;BME280;6362;50.208;9.182;2023-09-19T02:24:46;99360.59;;;16.44;100.00
12594;BME280;6362;50.208;9.182;2023-09-19T02:27:13;99369.44;;;16.41;100.00
12594;BME280;6362;50.208;9.182;2023-09-19T02:29:44;99371.28;;;16.39;100.00
12594;BME280;6362;50.208;9.182;2023-09-19T02:32:09;99379.25;;;16.36;100.00
12594;BME280;6362;50.208;9.182;2023-09-19T02:34:35;99384.50;;;16.36;100.00
12594;BME280;6362;50.208;9.182;2023-09-19T02:37:05;99385.50;;;16.33;100.00
12594;BME280;6362;50.208;9.182;2023-09-19T02:39:31;99385.06;;;16.44;100.00
12594;BME280;6362;50.208;9.182;2023-09-19T02:41:57;99389.59;;;16.41;100.00
12594;BME280;6362;50.208;9.182;2023-09-19T02:44:22;99390.69;;;16.35;100.00
12594;BME280;6362;50.208;9.182;2023-09-19T02:46:49;99388.06;;;16.35;100.00
12594;BME280;6362;50.208;9.182;2023-09-19T02:49:15;99391.47;;;16.37;100.00
12594;BME280;6362;50.208;9.182;2023-09-19T02:51:40;99394.56;;;16.25;100.00
12594;BME280;6362;50.208;9.182;2023-09-19T02:54:06;99403.44;;;16.22;100.00
12594;BME280;6362;50.208;9.182;2023-09-19T02:56:31;99406.25;;;16.18;100.00
12594;BME280;6362;50.208;9.182;2023-09-19T02:58:57;99409.72;;;16.18;100.00
12594;BME280;6362;50.208;9.182;2023-09-19T03:01:23;99416.72;;;16.18;100.00
12594;BME280;6362;50.208;9.182;2023-09-19T03:03:49;99415.81;;;16.19;100.00
12594;BME280;6362;50.208;9.182;2023-09-19T03:06:15;99414.28;;;16.13;100.00
12594;BME280;6362;50.208;9.182;2023-09-19T03:08:41;99413.78;;;16.03;100.00
12594;BME280;6362;50.208;9.182;2023-09-19T03:11:10;99412.31;;;15.96;100.00
12594;BME280;6362;50.208;9.182;2023-09-19T03:13:38;99415.72;;;15.98;100.00
12594;BME280;6362;50.208;9.182;2023-09-19T03:16:06;99423.66;;;15.97;100.00
12594;BME280;6362;50.208;9.182;2023-09-19T03:18:34;99425.81;;;15.86;100.00
12594;BME280;6362;50.208;9.182;2023-09-19T03:20:59;99424.28;;;15.80;100.00
12594;BME280;6362;50.208;9.182;2023-09-19T03:23:26;99429.00;;;15.70;100.00
12594;BME280;6362;50.208;9.182;2023-09-19T03:25:52;99419.94;;;15.79;100.00
12594;BME280;6362;50.208;9.182;2023-09-19T03:28:18;99431.44;;;15.75;100.00
12594;BME280;6362;50.208;9.182;2023-09-19T03:30:44;99435.22;;;15.68;100.00
12594;BME280;6362;50.208;9.182;2023-09-19T03:33:09;99444.22;;;15.59;100.00
12594;BME280;6362;50.208;9.182;2023-09-19T03:35:37;99436.53;;;15.54;100.00
12594;BME280;6362;50.208;9.182;2023-09-19T03:38:03;99436.59;;;15.53;100.00
12594;BME280;6362;50.208;9.182;2023-09-19T03:40:29;99424.69;;;15.44;100.00
12594;BME280;6362;50.208;9.182;2023-09-19T03:42:55;99433.22;;;15.49;100.00
12594;BME280;6362;50.208;9.182;2023-09-19T03:45:21;99424.84;;;15.40;100.00
12594;BME280;6362;50.208;9.182;2023-09-19T03:47:46;99421.41;;;15.38;100.00
12594;BME280;6362;50.208;9.182;2023-09-19T03:50:15;99436.25;;;15.37;100.00
12594;BME280;6362;50.208;9.182;2023-09-19T03:52:45;99433.06;;;15.29;100.00
12594;BME280;6362;50.208;9.182;2023-09-19T03:55:10;99425.50;;;15.21;100.00
12594;BME280;6362;50.208;9.182;2023-09-19T03:57:37;99426.50;;;15.17;100.00
12594;BME280;6362;50.208;9.182;2023-09-19T04:00:03;99429.25;;;15.13;100.00
12594;BME280;6362;50.208;9.182;2023-09-19T04:02:37;99433.75;;;15.09;100.00
12594;BME280;6362;50.208;9.182;2023-09-19T04:05:03;99433.00;;;15.05;100.00
12594;BME280;6362;50.208;9.182;2023-09-19T04:07:28;99445.34;;;15.02;100.00
12594;BME280;6362;50.208;9.182;2023-09-19T04:09:55;99436.72;;;14.98;100.00
12594;BME280;6362;50.208;9.182;2023-09-19T04:12:20;99437.84;;;14.91;100.00
12594;BME280;6362;50.208;9.182;2023-09-19T04:14:46;99441.44;;;14.89;100.00
12594;BME280;6362;50.208;9.182;2023-09-19T04:17:11;99437.13;;;14.86;100.00
12594;BME280;6362;50.208;9.182;2023-09-19T04:19:37;99442.44;;;14.85;100.00
12594;BME280;6362;50.208;9.182;2023-09-19T04:22:03;99445.19;;;14.80;100.00
12594;BME280;6362;50.208;9.182;2023-09-19T04:24:29;99449.50;;;14.81;100.00
12594;BME280;6362;50.208;9.182;2023-09-19T04:26:55;99453.97;;;14.79;100.00
12594;BME280;6362;50.208;9.182;2023-09-19T04:29:21;99449.63;;;14.78;100.00
12594;BME280;6362;50.208;9.182;2023-09-19T04:31:46;99453.66;;;14.88;100.00
12594;BME280;6362;50.208;9.182;2023-09-19T04:34:12;99458.84;;;14.90;100.00
12594;BME280;6362;50.208;9.182;2023-09-19T04:36:41;99470.06;;;14.93;100.00
12594;BME280;6362;50.208;9.182;2023-09-19T04:39:06;99469.88;;;14.99;100.00
12594;BME280;6362;50.208;9.182;2023-09-19T04:41:32;99471.69;;;14.97;100.00
12594;BME280;6362;50.208;9.182;2023-09-19T04:43:59;99478.47;;;15.03;100.00
12594;BME280;6362;50.208;9.182;2023-09-19T04:46:24;99472.44;;;15.01;100.00
12594;BME280;6362;50.208;9.182;2023-09-19T04:48:50;99473.28;;;15.01;100.00
12594;BME280;6362;50.208;9.182;2023-09-19T04:51:15;99481.00;;;15.06;100.00
12594;BME280;6362;50.208;9.182;2023-09-19T04:53:41;99488.81;;;15.08;100.00
12594;BME280;6362;50.208;9.182;2023-09-19T04:56:07;99491.41;;;15.08;100.00
12594;BME280;6362;50.208;9.182;2023-09-19T04:58:33;99492.06;;;15.14;100.00
12594;BME280;6362;50.208;9.182;2023-09-19T05:00:59;99498.28;;;15.12;100.00
12594;BME280;6362;50.208;9.182;2023-09-19T05:03:25;99489.41;;;15.16;100.00
12594;BME280;6362;50.208;9.182;2023-09-19T05:05:50;99499.72;;;15.20;100.00
12594;BME280;6362;50.208;9.182;2023-09-19T05:08:15;99504.66;;;15.29;100.00
12594;BME280;6362;50.208;9.182;2023-09-19T05:10:41;99502.19;;;15.25;100.00
12594;BME280;6362;50.208;9.182;2023-09-19T05:13:06;99500.06;;;15.36;100.00
12594;BME280;6362;50.208;9.182;2023-09-19T05:15:35;99493.44;;;15.51;100.00
12594;BME280;6362;50.208;9.182;2023-09-19T05:18:01;99493.53;;;15.48;100.00
12594;BME280;6362;50.208;9.182;2023-09-19T05:20:26;99495.94;;;15.80;100.00
12594;BME280;6362;50.208;9.182;2023-09-19T05:22:59;99505.00;;;15.72;100.00
12594;BME280;6362;50.208;9.182;2023-09-19T05:25:31;99509.66;;;15.87;100.00
12594;BME280;6362;50.208;9.182;2023-09-19T05:27:58;99512.50;;;15.81;100.00
12594;BME280;6362;50.208;9.182;2023-09-19T05:30:25;99511.97;;;15.96;100.00
12594;BME280;6362;50.208;9.182;2023-09-19T05:32:53;99509.34;;;15.96;100.00
12594;BME280;6362;50.208;9.182;2023-09-19T05:35:18;99508.09;;;16.06;100.00
12594;BME280;6362;50.208;9.182;2023-09-19T05:37:43;99510.44;;;16.14;100.00
12594;BME280;6362;50.208;9.182;2023-09-19T05:40:09;99510.34;;;16.17;100.00
12594;BME280;6362;50.208;9.182;2023-09-19T05:42:38;99512.44;;;16.07;100.00
12594;BME280;6362;50.208;9.182;2023-09-19T05:45:05;99515.97;;;16.06;100.00
12594;BME280;6362;50.208;9.182;2023-09-19T05:47:32;99512.28;;;16.12;100.00
12594;BME280;6362;50.208;9.182;2023-09-19T05:49:57;99508.72;;;16.13;100.00
12594;BME280;6362;50.208;9.182;2023-09-19T05:52:24;99507.97;;;16.09;100.00
12594;BME280;6362;50.208;9.182;2023-09-19T05:54:49;99513.22;;;16.09;95.96
12594;BME280;6362;50.208;9.182;2023-09-19T05:57:15;99512.03;;;15.95;95.43
12594;BME280;6362;50.208;9.182;2023-09-19T05:59:41;99511.97;;;15.96;95.09
12594;BME280;6362;50.208;9.182;2023-09-19T06:02:08;99523.09;;;16.03;95.70
12594;BME280;6362;50.208;9.182;2023-09-19T06:04:35;99530.88;;;16.04;96.21
12594;BME280;6362;50.208;9.182;2023-09-19T06:07:00;99533.25;;;16.12;97.01
12594;BME280;6362;50.208;9.182;2023-09-19T06:09:27;99539.28;;;16.14;95.78
12594;BME280;6362;50.208;9.182;2023-09-19T06:11:53;99537.19;;;16.24;94.70
12594;BME280;6362;50.208;9.182;2023-09-19T06:14:22;99536.28;;;16.25;92.81
12594;BME280;6362;50.208;9.182;2023-09-19T06:16:50;99544.59;;;16.36;93.19
12594;BME280;6362;50.208;9.182;2023-09-19T06:19:15;99547.78;;;16.21;95.33
12594;BME280;6362;50.208;9.182;2023-09-19T06:21:41;99551.91;;;16.28;95.83
12594;BME280;6362;50.208;9.182;2023-09-19T06:24:07;99554.00;;;16.18;98.32
12594;BME280;6362;50.208;9.182;2023-09-19T06:26:32;99549.56;;;16.20;97.21
12594;BME280;6362;50.208;9.182;2023-09-19T06:28:58;99549.06;;;16.34;96.48
12594;BME280;6362;50.208;9.182;2023-09-19T06:31:25;99553.91;;;16.21;96.94
12594;BME280;6362;50.208;9.182;2023-09-19T06:33:52;99557.34;;;16.23;97.11
12594;BME280;6362;50.208;9.182;2023-09-19T06:36:17;99558.13;;;16.25;96.66
12594;BME280;6362;50.208;9.182;2023-09-19T06:38:44;99558.03;;;16.28;95.61
12594;BME280;6362;50.208;9.182;2023-09-19T06:41:10;99566.41;;;16.38;95.14
12594;BME280;6362;50.208;9.182;2023-09-19T06:43:35;99563.59;;;16.43;96.12
12594;BME280;6362;50.208;9.182;2023-09-19T06:46:01;99572.97;;;16.50;93.35
12594;BME280;6362;50.208;9.182;2023-09-19T06:48:28;99569.69;;;16.43;93.09
12594;BME280;6362;50.208;9.182;2023-09-19T06:50:57;99587.81;;;16.51;92.98
12594;BME280;6362;50.208;9.182;2023-09-19T06:53:24;99589.63;;;16.49;92.38
12594;BME280;6362;50.208;9.182;2023-09-19T06:55:52;99594.13;;;16.45;92.42
12594;BME280;6362;50.208;9.182;2023-09-19T06:58:18;99594.94;;;16.47;93.27
12594;BME280;6362;50.208;9.182;2023-09-19T07:00:45;99592.91;;;16.55;92.73
12594;BME280;6362;50.208;9.182;2023-09-19T07:03:13;99591.00;;;16.59;91.90
12594;BME280;6362;50.208;9.182;2023-09-19T07:05:40;99592.50;;;16.66;90.88
12594;BME280;6362;50.208;9.182;2023-09-19T07:08:07;99596.75;;;16.69;91.32
12594;BME280;6362;50.208;9.182;2023-09-19T07:10:33;99606.13;;;16.76;91.34
12594;BME280;6362;50.208;9.182;2023-09-19T07:13:03;99599.28;;;16.95;89.03
12594;BME280;6362;50.208;9.182;2023-09-19T07:15:30;99593.88;;;16.98;88.62
12594;BME280;6362;50.208;9.182;2023-09-19T07:17:58;99593.97;;;16.97;88.68
12594;BME280;6362;50.208;9.182;2023-09-19T07:20:26;99601.53;;;17.04;87.83
12594;BME280;6362;50.208;9.182;2023-09-19T07:22:52;99615.66;;;17.02;87.38
12594;BME280;6362;50.208;9.182;2023-09-19T07:25:20;99617.59;;;16.97;87.30
12594;BME280;6362;50.208;9.182;2023-09-19T07:27:46;99609.66;;;16.98;87.59
12594;BME280;6362;50.208;9.182;2023-09-19T07:30:12;99620.91;;;17.02;85.05
12594;BME280;6362;50.208;9.182;2023-09-19T07:32:38;99632.16;;;17.05;85.92
12594;BME280;6362;50.208;9.182;2023-09-19T07:35:05;99627.19;;;16.98;85.54
12594;BME280;6362;50.208;9.182;2023-09-19T07:37:33;99630.81;;;17.17;82.95
12594;BME280;6362;50.208;9.182;2023-09-19T07:40:05;99630.41;;;17.28;83.00
12594;BME280;6362;50.208;9.182;2023-09-19T07:42:37;99631.19;;;17.30;82.29
12594;BME280;6362;50.208;9.182;2023-09-19T07:45:06;99629.22;;;17.35;81.60
12594;BME280;6362;50.208;9.182;2023-09-19T07:47:33;99644.16;;;17.34;80.27
12594;BME280;6362;50.208;9.182;2023-09-19T07:49:59;99644.31;;;17.30;79.33
12594;BME280;6362;50.208;9.182;2023-09-19T07:52:27;99631.53;;;17.21;78.30
12594;BME280;6362;50.208;9.182;2023-09-19T07:54:53;99631.31;;;17.27;77.43
12594;BME280;6362;50.208;9.182;2023-09-19T07:57:18;99646.00;;;17.32;76.46
12594;BME280;6362;50.208;9.182;2023-09-19T07:59:45;99653.75;;;17.35;75.74
12594;BME280;6362;50.208;9.182;2023-09-19T08:02:11;99658.56;;;17.24;74.73
12594;BME280;6362;50.208;9.182;2023-09-19T08:04:44;99651.78;;;17.19;75.50
12594;BME280;6362;50.208;9.182;2023-09-19T08:07:11;99650.38;;;17.32;76.04
12594;BME280;6362;50.208;9.182;2023-09-19T08:09:38;99655.19;;;17.42;74.52
12594;BME280;6362;50.208;9.182;2023-09-19T08:12:05;99658.50;;;17.48;74.05
12594;BME280;6362;50.208;9.182;2023-09-19T08:14:30;99663.94;;;17.43;71.95
12594;BME280;6362;50.208;9.182;2023-09-19T08:16:57;99665.00;;;17.39;71.80
12594;BME280;6362;50.208;9.182;2023-09-19T08:19:24;99665.44;;;17.50;70.82
12594;BME280;6362;50.208;9.182;2023-09-19T08:21:56;99664.25;;;17.57;71.27
12594;BME280;6362;50.208;9.182;2023-09-19T08:24:25;99663.75;;;17.69;70.20
12594;BME280;6362;50.208;9.182;2023-09-19T08:26:57;99663.34;;;17.58;69.99
12594;BME280;6362;50.208;9.182;2023-09-19T08:29:23;99662.38;;;17.61;70.96
12594;BME280;6362;50.208;9.182;2023-09-19T08:31:56;99655.16;;;17.66;70.93
12594;BME280;6362;50.208;9.182;2023-09-19T08:34:23;99660.19;;;17.92;70.47
12594;BME280;6362;50.208;9.182;2023-09-19T08:36:55;99665.28;;;17.97;68.82
12594;BME280;6362;50.208;9.182;2023-09-19T08:39:24;99678.13;;;18.05;69.36
12594;BME280;6362;50.208;9.182;2023-09-19T08:41:57;99685.63;;;18.34;67.80
12594;BME280;6362;50.208;9.182;2023-09-19T08:44:24;99689.09;;;18.35;65.75
12594;BME280;6362;50.208;9.182;2023-09-19T08:46:54;99690.28;;;18.48;62.98
12594;BME280;6362;50.208;9.182;2023-09-19T08:50:00;99691.84;;;18.52;63.58
12594;BME280;6362;50.208;9.182;2023-09-19T08:52:32;99688.88;;;18.80;63.34
12594;BME280;6362;50.208;9.182;2023-09-19T08:55:02;99695.81;;;18.83;60.26
12594;BME280;6362;50.208;9.182;2023-09-19T08:57:33;99691.59;;;18.58;59.69
12594;BME280;6362;50.208;9.182;2023-09-19T09:00:02;99690.66;;;18.80;59.54
12594;BME280;6362;50.208;9.182;2023-09-19T09:02:37;99685.59;;;18.75;58.91
12594;BME280;6362;50.208;9.182;2023-09-19T09:05:09;99688.47;;;18.89;59.30
12594;BME280;6362;50.208;9.182;2023-09-19T09:07:43;99680.66;;;18.88;60.22
12594;BME280;6362;50.208;9.182;2023-09-19T09:10:09;99680.56;;;18.89;60.16
12594;BME280;6362;50.208;9.182;2023-09-19T09:12:35;99693.09;;;19.03;60.46
12594;BME280;6362;50.208;9.182;2023-09-19T09:15:05;99681.50;;;19.07;56.82
12594;BME280;6362;50.208;9.182;2023-09-19T09:17:30;99695.13;;;19.17;56.44
12594;BME280;6362;50.208;9.182;2023-09-19T09:19:56;99679.63;;;18.90;56.21
12594;BME280;6362;50.208;9.182;2023-09-19T09:22:22;99689.56;;;19.23;56.66
12594;BME280;6362;50.208;9.182;2023-09-19T09:24:56;99686.84;;;19.43;56.88
12594;BME280;6362;50.208;9.182;2023-09-19T09:27:29;99687.00;;;19.58;56.40
12594;BME280;6362;50.208;9.182;2023-09-19T09:29:55;99684.72;;;19.69;56.14
12594;BME280;6362;50.208;9.182;2023-09-19T09:32:21;99676.72;;;19.70;56.26
12594;BME280;6362;50.208;9.182;2023-09-19T09:34:50;99680.00;;;19.75;55.75
12594;BME280;6362;50.208;9.182;2023-09-19T09:37:17;99684.22;;;19.80;54.17
12594;BME280;6362;50.208;9.182;2023-09-19T09:39:52;99682.94;;;19.69;52.60
12594;BME280;6362;50.208;9.182;2023-09-19T09:42:30;99677.31;;;19.94;52.73
12594;BME280;6362;50.208;9.182;2023-09-19T09:45:18;99694.75;;;19.80;53.43
12594;BME280;6362;50.208;9.182;2023-09-19T09:47:46;99693.53;;;19.87;53.83
12594;BME280;6362;50.208;9.182;2023-09-19T09:50:30;99685.16;;;19.96;52.56
12594;BME280;6362;50.208;9.182;2023-09-19T09:53:29;99691.16;;;19.99;53.43
12594;BME280;6362;50.208;9.182;2023-09-19T09:55:59;99701.22;;;19.91;52.40
12594;BME280;6362;50.208;9.182;2023-09-19T09:58:25;99695.25;;;19.88;52.68
12594;BME280;6362;50.208;9.182;2023-09-19T10:00:58;99702.47;;;19.84;52.60
12594;BME280;6362;50.208;9.182;2023-09-19T10:03:51;99701.66;;;19.82;52.37
12594;BME280;6362;50.208;9.182;2023-09-19T10:06:22;99697.41;;;19.80;52.54
12594;BME280;6362;50.208;9.182;2023-09-19T10:12:00;99713.31;;;19.78;51.42
12594;BME280;6362;50.208;9.182;2023-09-19T10:14:30;99722.28;;;20.10;50.65
12594;BME280;6362;50.208;9.182;2023-09-19T10:16:58;99708.28;;;20.43;49.74
12594;BME280;6362;50.208;9.182;2023-09-19T10:19:56;99709.00;;;20.64;49.09
12594;BME280;6362;50.208;9.182;2023-09-19T10:22:31;99717.16;;;20.42;49.28
12594;BME280;6362;50.208;9.182;2023-09-19T10:25:00;99719.66;;;20.45;47.99
12594;BME280;6362;50.208;9.182;2023-09-19T10:27:29;99707.53;;;20.23;48.14
12594;BME280;6362;50.208;9.182;2023-09-19T10:29:56;99722.84;;;20.17;48.59
12594;BME280;6362;50.208;9.182;2023-09-19T10:32:26;99709.78;;;20.14;48.71
12594;BME280;6362;50.208;9.182;2023-09-19T10:34:54;99712.59;;;20.28;48.10
12594;BME280;6362;50.208;9.182;2023-09-19T10:37:22;99707.31;;;20.28;48.59
12594;BME280;6362;50.208;9.182;2023-09-19T10:39:52;99709.84;;;20.29;49.15
12594;BME280;6362;50.208;9.182;2023-09-19T10:42:19;99709.63;;;20.51;50.88
12594;BME280;6362;50.208;9.182;2023-09-19T10:44:46;99714.69;;;20.56;48.63
12594;BME280;6362;50.208;9.182;2023-09-19T10:47:19;99724.69;;;20.67;47.16
12594;BME280;6362;50.208;9.182;2023-09-19T10:49:46;99724.28;;;20.74;47.02
12594;BME280;6362;50.208;9.182;2023-09-19T10:52:17;99728.84;;;20.55;46.71
12594;BME280;6362;50.208;9.182;2023-09-19T10:54:53;99724.34;;;20.90;45.37
12594;BME280;6362;50.208;9.182;2023-09-19T10:57:24;99717.97;;;21.43;45.91
12594;BME280;6362;50.208;9.182;2023-09-19T11:00:08;99708.34;;;21.88;46.13
12594;BME280;6362;50.208;9.182;2023-09-19T11:05:38;99714.78;;;22.58;42.36
12594;BME280;6362;50.208;9.182;2023-09-19T11:08:09;99708.84;;;22.69;42.18
12594;BME280;6362;50.208;9.182;2023-09-19T11:18:52;99707.88;;;22.56;42.02
12594;BME280;6362;50.208;9.182;2023-09-19T11:24:27;99700.50;;;22.75;42.08
12594;BME280;6362;50.208;9.182;2023-09-19T11:27:09;99702.75;;;22.53;41.96
12594;BME280;6362;50.208;9.182;2023-09-19T11:29:36;99686.28;;;22.48;43.26
12594;BME280;6362;50.208;9.182;2023-09-19T11:32:02;99687.28;;;22.89;40.63
12594;BME280;6362;50.208;9.182;2023-09-19T11:37:01;99699.88;;;23.00;43.83
12594;BME280;6362;50.208;9.182;2023-09-19T11:39:29;99679.28;;;23.18;38.86
12594;BME280;6362;50.208;9.182;2023-09-19T11:41:55;99684.59;;;23.32;38.11
12594;BME280;6362;50.208;9.182;2023-09-19T11:49:26;99677.19;;;23.23;39.45
12594;BME280;6362;50.208;9.182;2023-09-19T11:51:55;99682.63;;;22.93;38.80
12594;BME280;6362;50.208;9.182;2023-09-19T11:54:21;99685.56;;;23.17;40.31
12594;BME280;6362;50.208;9.182;2023-09-19T11:56:52;99686.22;;;22.92;39.85
12594;BME280;6362;50.208;9.182;2023-09-19T11:59:24;99687.59;;;21.80;42.00
12594;BME280;6362;50.208;9.182;2023-09-19T12:01:54;99687.72;;;21.63;42.88
12594;BME280;6362;50.208;9.182;2023-09-19T12:07:09;99685.75;;;21.51;43.52
12594;BME280;6362;50.208;9.182;2023-09-19T12:09:45;99687.38;;;21.22;43.33
12594;BME280;6362;50.208;9.182;2023-09-19T12:12:22;99677.88;;;21.65;42.75
12594;BME280;6362;50.208;9.182;2023-09-19T12:14:51;99683.34;;;22.52;40.76
12594;BME280;6362;50.208;9.182;2023-09-19T12:17:17;99679.94;;;22.64;40.87
12594;BME280;6362;50.208;9.182;2023-09-19T12:19:50;99674.00;;;23.18;39.12
12594;BME280;6362;50.208;9.182;2023-09-19T12:22:16;99680.78;;;23.78;37.93
12594;BME280;6362;50.208;9.182;2023-09-19T12:24:43;99676.59;;;24.13;36.70
12594;BME280;6362;50.208;9.182;2023-09-19T12:27:09;99684.59;;;23.32;36.83
12594;BME280;6362;50.208;9.182;2023-09-19T12:29:47;99676.63;;;23.32;36.90
12594;BME280;6362;50.208;9.182;2023-09-19T12:32:16;99671.41;;;23.58;36.56
12594;BME280;6362;50.208;9.182;2023-09-19T12:34:42;99668.63;;;24.26;36.10
12594;BME280;6362;50.208;9.182;2023-09-19T12:37:15;99680.16;;;24.39;35.24
12594;BME280;6362;50.208;9.182;2023-09-19T12:39:46;99662.03;;;24.19;35.24
12594;BME280;6362;50.208;9.182;2023-09-19T12:42:15;99673.34;;;22.72;37.84
12594;BME280;6362;50.208;9.182;2023-09-19T12:44:43;99664.50;;;22.28;38.90
12594;BME280;6362;50.208;9.182;2023-09-19T12:47:15;99667.22;;;21.97;39.69
12594;BME280;6362;50.208;9.182;2023-09-19T12:50:14;99673.50;;;21.80;40.41
12594;BME280;6362;50.208;9.182;2023-09-19T12:52:49;99655.03;;;22.08;40.25
12594;BME280;6362;50.208;9.182;2023-09-19T12:55:28;99641.91;;;22.07;40.11
12594;BME280;6362;50.208;9.182;2023-09-19T13:00:39;99647.78;;;23.26;38.99
12594;BME280;6362;50.208;9.182;2023-09-19T13:03:32;99642.78;;;23.63;36.16
12594;BME280;6362;50.208;9.182;2023-09-19T13:06:01;99639.19;;;23.64;35.85
12594;BME280;6362;50.208;9.182;2023-09-19T13:08:30;99643.56;;;23.51;35.78
12594;BME280;6362;50.208;9.182;2023-09-19T13:11:07;99649.16;;;24.13;35.81
12594;BME280;6362;50.208;9.182;2023-09-19T13:13:47;99643.06;;;23.58;36.19
12594;BME280;6362;50.208;9.182;2023-09-19T13:16:15;99637.50;;;23.76;37.87
12594;BME280;6362;50.208;9.182;2023-09-19T13:18:49;99633.75;;;24.18;36.11
12594;BME280;6362;50.208;9.182;2023-09-19T13:23:55;99630.81;;;24.61;35.11
12594;BME280;6362;50.208;9.182;2023-09-19T13:26:27;99631.53;;;24.75;35.59
12594;BME280;6362;50.208;9.182;2023-09-19T13:28:54;99624.41;;;24.12;35.31
12594;BME280;6362;50.208;9.182;2023-09-19T13:31:19;99623.22;;;23.37;37.27
12594;BME280;6362;50.208;9.182;2023-09-19T13:33:47;99628.09;;;23.30;36.71
12594;BME280;6362;50.208;9.182;2023-09-19T13:36:12;99624.69;;;23.55;36.77
12594;BME280;6362;50.208;9.182;2023-09-19T13:38:42;99628.25;;;24.34;37.09
12594;BME280;6362;50.208;9.182;2023-09-19T13:41:09;99634.19;;;24.88;35.56
12594;BME280;6362;50.208;9.182;2023-09-19T13:43:36;99626.44;;;24.34;34.77
12594;BME280;6362;50.208;9.182;2023-09-19T13:46:01;99626.44;;;24.34;34.51
12594;BME280;6362;50.208;9.182;2023-09-19T13:48:27;99635.09;;;24.51;35.30
12594;BME280;6362;50.208;9.182;2023-09-19T13:50:55;99629.13;;;24.47;35.21
12594;BME280;6362;50.208;9.182;2023-09-19T13:53:21;99624.63;;;24.22;35.38
12594;BME280;6362;50.208;9.182;2023-09-19T13:55:46;99618.63;;;23.80;36.67
12594;BME280;6362;50.208;9.182;2023-09-19T13:58:14;99608.84;;;23.54;37.17
12594;BME280;6362;50.208;9.182;2023-09-19T14:00:39;99610.56;;;23.55;37.11
12594;BME280;6362;50.208;9.182;2023-09-19T14:03:05;99615.41;;;23.48;37.28
12594;BME280;6362;50.208;9.182;2023-09-19T14:05:31;99605.56;;;23.50;37.78
12594;BME280;6362;50.208;9.182;2023-09-19T14:07:56;99598.88;;;23.84;36.83
12594;BME280;6362;50.208;9.182;2023-09-19T14:10:24;99603.44;;;23.82;36.24
12594;BME280;6362;50.208;9.182;2023-09-19T14:12:52;99614.22;;;23.39;36.95